sensor_id;sensor_type;location;lat;lon;timestamp;temperature;humidity
21312;DHT22;18076;52.154;10.570;2023-09-19T00:01:34;15.90;99.90
21312;DHT22;18076;52.154;10.570;2023-09-19T00:04:00;15.90;99.90
21312;DHT22;18076;52.154;10.570;2023-09-19T00:06:29;15.90;99.90
21312;DHT22;18076;52.154;10.570;2023-09-19T00:08:57;15.80;99.90
21312;DHT22;18076;52.154;10.570;2023-09-19T00:11:24;15.70;99.90
21312;DHT22;18076;52.154;10.570;2023-09-19T00:13:51;15.80;99.90
21312;DHT22;18076;52.154;10.570;2023-09-19T00:16:16;15.80;99.90
21312;DHT22;18076;52.154;10.570;2023-09-19T00:18:44;15.90;99.90
21312;DHT22;18076;52.154;10.570;2023-09-19T00:21:10;16.00;99.90
21312;DHT22;18076;52.154;10.570;2023-09-19T00:23:35;16.20;99.90
21312;DHT22;18076;52.154;10.570;2023-09-19T00:26:01;16.30;99.90
21312;DHT22;18076;52.154;10.570;2023-09-19T00:28:26;16.40;99.90
21312;DHT22;18076;52.154;10.570;2023-09-19T00:30:52;16.50;99.90
21312;DHT22;18076;52.154;10.570;2023-09-19T00:33:19;16.60;99.90
21312;DHT22;18076;52.154;10.570;2023-09-19T00:38:14;16.60;99.90
21312;DHT22;18076;52.154;10.570;2023-09-19T00:40:45;16.60;99.90
21312;DHT22;18076;52.154;10.570;2023-09-19T00:43:11;16.60;99.90
21312;DHT22;18076;52.154;10.570;2023-09-19T00:45:37;16.50;99.90
21312;DHT22;18076;52.154;10.570;2023-09-19T00:48:04;16.50;99.90
21312;DHT22;18076;52.154;10.570;2023-09-19T00:50:31;16.50;99.90
21312;DHT22;18076;52.154;10.570;2023-09-19T00:52:57;16.50;99.90
21312;DHT22;18076;52.154;10.570;2023-09-19T00:55:24;16.40;99.90
21312;DHT22;18076;52.154;10.570;2023-09-19T00:57:49;16.40;99.90
21312;DHT22;18076;52.154;10.570;2023-09-19T01:00:15;16.40;99.90
21312;DHT22;18076;52.154;10.570;2023-09-19T01:02:41;16.40;99.90
21312;DHT22;18076;52.154;10.570;2023-09-19T01:05:08;16.40;99.90
21312;DHT22;18076;52.154;10.570;2023-09-19T01:07:33;16.30;99.90
21312;DHT22;18076;52.154;10.570;2023-09-19T01:10:00;16.30;99.90
21312;DHT22;18076;52.154;10.570;2023-09-19T01:12:30;16.30;99.90
21312;DHT22;18076;52.154;10.570;2023-09-19T01:15:06;16.30;99.90
21312;DHT22;18076;52.154;10.570;2023-09-19T01:17:43;16.30;99.90
21312;DHT22;18076;52.154;10.570;2023-09-19T01:30:39;16.30;99.90
21312;DHT22;18076;52.154;10.570;2023-09-19T01:33:05;16.30;99.90
21312;DHT22;18076;52.154;10.570;2023-09-19T01:35:31;16.30;99.90
21312;DHT22;18076;52.154;10.570;2023-09-19T01:37:59;16.30;99.90
21312;DHT22;18076;52.154;10.570;2023-09-19T01:40:25;16.20;99.90
21312;DHT22;18076;52.154;10.570;2023-09-19T01:42:58;16.20;99.90
21312;DHT22;18076;52.154;10.570;2023-09-19T01:47:56;16.20;99.90
21312;DHT22;18076;52.154;10.570;2023-09-19T01:53:07;16.20;99.90
21312;DHT22;18076;52.154;10.570;2023-09-19T01:55:36;16.20;99.90
21312;DHT22;18076;52.154;10.570;2023-09-19T02:00:32;16.20;99.90
21312;DHT22;18076;52.154;10.570;2023-09-19T02:02:58;16.20;99.90
21312;DHT22;18076;52.154;10.570;2023-09-19T02:05:24;16.20;99.90
21312;DHT22;18076;52.154;10.570;2023-09-19T02:07:51;16.20;99.90
21312;DHT22;18076;52.154;10.570;2023-09-19T02:10:18;16.10;99.90
21312;DHT22;18076;52.154;10.570;2023-09-19T02:12:43;16.10;99.90
21312;DHT22;18076;52.154;10.570;2023-09-19T02:15:10;16.10;99.90
21312;DHT22;18076;52.154;10.570;2023-09-19T02:17:35;16.10;99.90
21312;DHT22;18076;52.154;10.570;2023-09-19T02:20:01;16.10;99.90
21312;DHT22;18076;52.154;10.570;2023-09-19T02:22:28;16.00;99.90
21312;DHT22;18076;52.154;10.570;2023-09-19T02:24:54;16.00;99.90
21312;DHT22;18076;52.154;10.570;2023-09-19T02:27:23;15.90;99.90
21312;DHT22;18076;52.154;10.570;2023-09-19T02:29:49;15.90;99.90
21312;DHT22;18076;52.154;10.570;2023-09-19T02:32:14;15.90;99.90
21312;DHT22;18076;52.154;10.570;2023-09-19T02:34:40;15.90;99.90
21312;DHT22;18076;52.154;10.570;2023-09-19T02:37:07;15.80;99.90
21312;DHT22;18076;52.154;10.570;2023-09-19T02:39:34;15.80;99.90
21312;DHT22;18076;52.154;10.570;2023-09-19T02:41:59;15.80;99.90
21312;DHT22;18076;52.154;10.570;2023-09-19T02:44:25;15.70;99.90
21312;DHT22;18076;52.154;10.570;2023-09-19T02:46:50;15.70;99.90
21312;DHT22;18076;52.154;10.570;2023-09-19T02:49:16;15.70;99.90
21312;DHT22;18076;52.154;10.570;2023-09-19T02:51:43;15.70;99.90
21312;DHT22;18076;52.154;10.570;2023-09-19T02:54:09;15.60;99.90
21312;DHT22;18076;52.154;10.570;2023-09-19T02:56:35;15.50;99.90
21312;DHT22;18076;52.154;10.570;2023-09-19T02:59:01;15.60;99.90
21312;DHT22;18076;52.154;10.570;2023-09-19T03:01:27;15.50;99.90
21312;DHT22;18076;52.154;10.570;2023-09-19T03:03:53;15.50;99.90
21312;DHT22;18076;52.154;10.570;2023-09-19T03:06:19;15.40;99.90
21312;DHT22;18076;52.154;10.570;2023-09-19T03:08:45;15.50;99.90
21312;DHT22;18076;52.154;10.570;2023-09-19T03:11:12;15.40;99.90
21312;DHT22;18076;52.154;10.570;2023-09-19T03:13:40;15.40;99.90
21312;DHT22;18076;52.154;10.570;2023-09-19T03:16:06;15.50;99.90
21312;DHT22;18076;52.154;10.570;2023-09-19T03:18:35;15.40;99.90
21312;DHT22;18076;52.154;10.570;2023-09-19T03:21:22;15.30;99.90
21312;DHT22;18076;52.154;10.570;2023-09-19T03:23:50;15.40;99.90
21312;DHT22;18076;52.154;10.570;2023-09-19T03:26:16;15.30;99.90
21312;DHT22;18076;52.154;10.570;2023-09-19T03:28:42;15.30;99.90
21312;DHT22;18076;52.154;10.570;2023-09-19T03:31:08;15.30;99.90
21312;DHT22;18076;52.154;10.570;2023-09-19T03:33:34;15.20;99.90
21312;DHT22;18076;52.154;10.570;2023-09-19T03:36:00;15.30;99.90
21312;DHT22;18076;52.154;10.570;2023-09-19T03:38:29;15.20;99.90
21312;DHT22;18076;52.154;10.570;2023-09-19T03:40:54;15.20;99.90
21312;DHT22;18076;52.154;10.570;2023-09-19T03:43:20;15.20;99.90
21312;DHT22;18076;52.154;10.570;2023-09-19T03:45:45;15.10;99.90
21312;DHT22;18076;52.154;10.570;2023-09-19T03:48:12;15.10;99.90
21312;DHT22;18076;52.154;10.570;2023-09-19T03:50:38;15.10;99.90
21312;DHT22;18076;52.154;10.570;2023-09-19T03:53:04;15.10;99.90
21312;DHT22;18076;52.154;10.570;2023-09-19T03:55:29;15.00;99.90
21312;DHT22;18076;52.154;10.570;2023-09-19T03:58:01;15.10;99.90
21312;DHT22;18076;52.154;10.570;2023-09-19T04:00:26;15.10;99.90
21312;DHT22;18076;52.154;10.570;2023-09-19T04:02:52;15.10;99.90
21312;DHT22;18076;52.154;10.570;2023-09-19T04:05:18;15.10;99.90
21312;DHT22;18076;52.154;10.570;2023-09-19T04:07:43;15.00;99.90
21312;DHT22;18076;52.154;10.570;2023-09-19T04:10:09;15.00;99.90
21312;DHT22;18076;52.154;10.570;2023-09-19T04:12:37;14.90;99.90
21312;DHT22;18076;52.154;10.570;2023-09-19T04:15:06;15.00;99.90
21312;DHT22;18076;52.154;10.570;2023-09-19T04:17:32;15.00;99.90
21312;DHT22;18076;52.154;10.570;2023-09-19T04:19:58;15.00;99.90
21312;DHT22;18076;52.154;10.570;2023-09-19T04:22:24;15.00;99.90
21312;DHT22;18076;52.154;10.570;2023-09-19T04:24:49;15.00;99.90
21312;DHT22;18076;52.154;10.570;2023-09-19T04:27:15;15.00;99.90
21312;DHT22;18076;52.154;10.570;2023-09-19T04:29:41;15.00;99.90
21312;DHT22;18076;52.154;10.570;2023-09-19T04:32:07;14.90;99.90
21312;DHT22;18076;52.154;10.570;2023-09-19T04:34:33;14.90;99.90
21312;DHT22;18076;52.154;10.570;2023-09-19T04:36:59;14.90;99.90
21312;DHT22;18076;52.154;10.570;2023-09-19T04:39:26;14.90;99.90
21312;DHT22;18076;52.154;10.570;2023-09-19T04:41:52;14.90;99.90
21312;DHT22;18076;52.154;10.570;2023-09-19T04:44:18;14.90;99.90
21312;DHT22;18076;52.154;10.570;2023-09-19T04:46:43;14.90;99.90
21312;DHT22;18076;52.154;10.570;2023-09-19T04:49:09;14.90;99.90
21312;DHT22;18076;52.154;10.570;2023-09-19T04:51:35;14.90;99.90
21312;DHT22;18076;52.154;10.570;2023-09-19T04:54:01;14.90;99.90
21312;DHT22;18076;52.154;10.570;2023-09-19T04:56:28;14.90;99.90
21312;DHT22;18076;52.154;10.570;2023-09-19T04:58:57;14.90;99.90
21312;DHT22;18076;52.154;10.570;2023-09-19T05:01:24;14.90;99.90
21312;DHT22;18076;52.154;10.570;2023-09-19T05:03:49;14.90;99.90
21312;DHT22;18076;52.154;10.570;2023-09-19T05:06:18;14.90;99.90
21312;DHT22;18076;52.154;10.570;2023-09-19T05:08:46;14.90;99.90
21312;DHT22;18076;52.154;10.570;2023-09-19T05:11:15;14.90;99.90
21312;DHT22;18076;52.154;10.570;2023-09-19T05:13:40;14.90;99.90
21312;DHT22;18076;52.154;10.570;2023-09-19T05:16:06;14.90;99.90
21312;DHT22;18076;52.154;10.570;2023-09-19T05:18:35;14.90;99.90
21312;DHT22;18076;52.154;10.570;2023-09-19T05:21:04;14.90;99.90
21312;DHT22;18076;52.154;10.570;2023-09-19T05:23:29;14.90;99.90
21312;DHT22;18076;52.154;10.570;2023-09-19T05:25:55;14.90;99.90
21312;DHT22;18076;52.154;10.570;2023-09-19T05:28:22;15.00;99.90
21312;DHT22;18076;52.154;10.570;2023-09-19T05:30:47;14.90;99.90
21312;DHT22;18076;52.154;10.570;2023-09-19T05:33:14;14.90;99.90
21312;DHT22;18076;52.154;10.570;2023-09-19T05:35:39;15.00;99.90
21312;DHT22;18076;52.154;10.570;2023-09-19T05:38:07;15.00;99.90
21312;DHT22;18076;52.154;10.570;2023-09-19T05:40:34;15.00;99.90
21312;DHT22;18076;52.154;10.570;2023-09-19T05:43:00;15.10;99.90
21312;DHT22;18076;52.154;10.570;2023-09-19T05:45:26;15.00;99.90
21312;DHT22;18076;52.154;10.570;2023-09-19T05:47:52;15.00;99.90
21312;DHT22;18076;52.154;10.570;2023-09-19T05:50:21;15.00;99.90
21312;DHT22;18076;52.154;10.570;2023-09-19T05:52:53;15.00;99.90
21312;DHT22;18076;52.154;10.570;2023-09-19T05:55:19;15.00;99.90
21312;DHT22;18076;52.154;10.570;2023-09-19T05:57:51;15.00;99.90
21312;DHT22;18076;52.154;10.570;2023-09-19T06:00:20;15.00;99.90
21312;DHT22;18076;52.154;10.570;2023-09-19T06:02:54;15.00;99.90
21312;DHT22;18076;52.154;10.570;2023-09-19T06:05:20;14.90;99.90
21312;DHT22;18076;52.154;10.570;2023-09-19T06:07:46;15.00;99.90
21312;DHT22;18076;52.154;10.570;2023-09-19T06:10:12;15.00;99.90
21312;DHT22;18076;52.154;10.570;2023-09-19T06:12:43;14.90;99.90
21312;DHT22;18076;52.154;10.570;2023-09-19T06:15:12;14.90;99.90
21312;DHT22;18076;52.154;10.570;2023-09-19T06:17:50;14.90;99.90
21312;DHT22;18076;52.154;10.570;2023-09-19T06:20:16;14.90;99.90
21312;DHT22;18076;52.154;10.570;2023-09-19T06:22:43;15.00;99.90
21312;DHT22;18076;52.154;10.570;2023-09-19T06:25:09;15.20;99.90
21312;DHT22;18076;52.154;10.570;2023-09-19T06:27:36;15.30;99.90
21312;DHT22;18076;52.154;10.570;2023-09-19T06:30:02;15.60;99.90
21312;DHT22;18076;52.154;10.570;2023-09-19T06:32:28;15.60;99.90
21312;DHT22;18076;52.154;10.570;2023-09-19T06:34:54;15.60;99.90
21312;DHT22;18076;52.154;10.570;2023-09-19T06:37:20;15.70;99.90
21312;DHT22;18076;52.154;10.570;2023-09-19T06:39:46;16.20;99.90
21312;DHT22;18076;52.154;10.570;2023-09-19T06:42:13;16.80;99.90
21312;DHT22;18076;52.154;10.570;2023-09-19T06:44:38;17.20;99.90
21312;DHT22;18076;52.154;10.570;2023-09-19T06:47:04;17.70;99.90
21312;DHT22;18076;52.154;10.570;2023-09-19T06:49:32;17.90;99.90
21312;DHT22;18076;52.154;10.570;2023-09-19T06:51:58;18.10;99.90
21312;DHT22;18076;52.154;10.570;2023-09-19T06:54:24;18.30;99.90
21312;DHT22;18076;52.154;10.570;2023-09-19T06:56:49;18.10;99.90
21312;DHT22;18076;52.154;10.570;2023-09-19T06:59:15;18.00;99.90
21312;DHT22;18076;52.154;10.570;2023-09-19T07:01:41;18.00;99.90
21312;DHT22;18076;52.154;10.570;2023-09-19T07:04:09;18.20;99.90
21312;DHT22;18076;52.154;10.570;2023-09-19T07:06:35;18.20;99.90
21312;DHT22;18076;52.154;10.570;2023-09-19T07:09:01;18.40;99.90
21312;DHT22;18076;52.154;10.570;2023-09-19T07:11:26;18.40;99.90
21312;DHT22;18076;52.154;10.570;2023-09-19T07:13:52;18.50;99.90
21312;DHT22;18076;52.154;10.570;2023-09-19T07:16:17;18.70;99.90
21312;DHT22;18076;52.154;10.570;2023-09-19T07:18:52;18.80;99.90
21312;DHT22;18076;52.154;10.570;2023-09-19T07:21:18;18.90;99.90
21312;DHT22;18076;52.154;10.570;2023-09-19T07:23:43;19.10;99.90
21312;DHT22;18076;52.154;10.570;2023-09-19T07:26:09;19.20;99.90
21312;DHT22;18076;52.154;10.570;2023-09-19T07:28:35;19.00;99.90
21312;DHT22;18076;52.154;10.570;2023-09-19T07:31:02;19.00;99.90
21312;DHT22;18076;52.154;10.570;2023-09-19T07:33:28;19.30;99.90
21312;DHT22;18076;52.154;10.570;2023-09-19T07:35:54;19.30;99.90
21312;DHT22;18076;52.154;10.570;2023-09-19T07:38:20;19.20;99.90
21312;DHT22;18076;52.154;10.570;2023-09-19T07:40:46;19.20;99.90
21312;DHT22;18076;52.154;10.570;2023-09-19T07:43:12;19.40;99.90
21312;DHT22;18076;52.154;10.570;2023-09-19T07:45:37;19.60;99.90
21312;DHT22;18076;52.154;10.570;2023-09-19T07:48:03;19.60;99.90
21312;DHT22;18076;52.154;10.570;2023-09-19T07:50:29;19.70;99.90
21312;DHT22;18076;52.154;10.570;2023-09-19T07:52:55;19.70;99.90
21312;DHT22;18076;52.154;10.570;2023-09-19T07:55:21;19.50;99.90
21312;DHT22;18076;52.154;10.570;2023-09-19T07:57:51;19.30;99.90
21312;DHT22;18076;52.154;10.570;2023-09-19T08:00:17;19.20;99.90
21312;DHT22;18076;52.154;10.570;2023-09-19T08:02:42;18.90;99.90
21312;DHT22;18076;52.154;10.570;2023-09-19T08:05:08;18.90;99.90
21312;DHT22;18076;52.154;10.570;2023-09-19T08:07:37;18.90;99.90
21312;DHT22;18076;52.154;10.570;2023-09-19T08:10:04;19.20;99.90
21312;DHT22;18076;52.154;10.570;2023-09-19T08:12:29;19.40;99.90
21312;DHT22;18076;52.154;10.570;2023-09-19T08:14:55;19.30;99.90
21312;DHT22;18076;52.154;10.570;2023-09-19T08:17:21;19.20;99.90
21312;DHT22;18076;52.154;10.570;2023-09-19T08:19:48;19.20;99.90
21312;DHT22;18076;52.154;10.570;2023-09-19T08:22:14;19.00;99.90
21312;DHT22;18076;52.154;10.570;2023-09-19T08:24:42;18.70;99.90
21312;DHT22;18076;52.154;10.570;2023-09-19T08:27:08;18.50;99.90
21312;DHT22;18076;52.154;10.570;2023-09-19T08:29:35;18.30;99.90
21312;DHT22;18076;52.154;10.570;2023-09-19T08:32:01;18.20;99.90
21312;DHT22;18076;52.154;10.570;2023-09-19T08:34:26;18.20;99.90
21312;DHT22;18076;52.154;10.570;2023-09-19T08:36:52;18.30;99.90
21312;DHT22;18076;52.154;10.570;2023-09-19T08:39:22;18.30;99.90
21312;DHT22;18076;52.154;10.570;2023-09-19T08:41:47;18.70;99.90
21312;DHT22;18076;52.154;10.570;2023-09-19T08:44:13;18.80;99.90
21312;DHT22;18076;52.154;10.570;2023-09-19T08:46:40;18.90;99.90
21312;DHT22;18076;52.154;10.570;2023-09-19T08:49:36;19.00;99.90
21312;DHT22;18076;52.154;10.570;2023-09-19T08:51:59;19.10;99.90
21312;DHT22;18076;52.154;10.570;2023-09-19T08:54:28;19.10;99.90
21312;DHT22;18076;52.154;10.570;2023-09-19T08:56:59;19.30;99.90
21312;DHT22;18076;52.154;10.570;2023-09-19T08:59:27;19.40;99.90
21312;DHT22;18076;52.154;10.570;2023-09-19T09:01:54;19.50;99.90
21312;DHT22;18076;52.154;10.570;2023-09-19T09:04:20;19.50;99.90
21312;DHT22;18076;52.154;10.570;2023-09-19T09:06:47;19.60;99.90
21312;DHT22;18076;52.154;10.570;2023-09-19T09:09:16;19.60;99.90
21312;DHT22;18076;52.154;10.570;2023-09-19T09:11:42;19.80;99.90
21312;DHT22;18076;52.154;10.570;2023-09-19T09:14:07;19.80;99.90
21312;DHT22;18076;52.154;10.570;2023-09-19T09:16:33;19.70;99.90
21312;DHT22;18076;52.154;10.570;2023-09-19T09:18:59;19.60;99.90
21312;DHT22;18076;52.154;10.570;2023-09-19T09:21:25;19.40;99.90
21312;DHT22;18076;52.154;10.570;2023-09-19T09:23:51;19.50;99.90
21312;DHT22;18076;52.154;10.570;2023-09-19T09:26:17;19.40;99.90
21312;DHT22;18076;52.154;10.570;2023-09-19T09:29:04;19.40;99.90
21312;DHT22;18076;52.154;10.570;2023-09-19T09:31:30;19.50;99.90
21312;DHT22;18076;52.154;10.570;2023-09-19T09:33:55;19.60;99.90
21312;DHT22;18076;52.154;10.570;2023-09-19T09:36:34;19.60;99.90
21312;DHT22;18076;52.154;10.570;2023-09-19T09:38:59;19.60;99.90
21312;DHT22;18076;52.154;10.570;2023-09-19T09:41:41;19.60;99.90
21312;DHT22;18076;52.154;10.570;2023-09-19T09:44:13;19.70;99.90
21312;DHT22;18076;52.154;10.570;2023-09-19T09:46:44;19.60;99.90
21312;DHT22;18076;52.154;10.570;2023-09-19T09:49:22;19.70;99.90
21312;DHT22;18076;52.154;10.570;2023-09-19T09:52:04;19.80;99.90
21312;DHT22;18076;52.154;10.570;2023-09-19T09:54:41;19.80;99.90
21312;DHT22;18076;52.154;10.570;2023-09-19T09:57:23;19.70;99.90
21312;DHT22;18076;52.154;10.570;2023-09-19T09:59:55;19.70;99.90
21312;DHT22;18076;52.154;10.570;2023-09-19T10:02:27;19.60;99.90
21312;DHT22;18076;52.154;10.570;2023-09-19T10:07:40;20.10;99.90
21312;DHT22;18076;52.154;10.570;2023-09-19T10:10:15;20.00;99.90
21312;DHT22;18076;52.154;10.570;2023-09-19T10:12:54;20.00;99.90
21312;DHT22;18076;52.154;10.570;2023-09-19T10:15:21;20.20;99.90
21312;DHT22;18076;52.154;10.570;2023-09-19T10:17:50;20.10;99.90
21312;DHT22;18076;52.154;10.570;2023-09-19T10:20:19;20.30;99.90
21312;DHT22;18076;52.154;10.570;2023-09-19T10:23:10;20.10;99.90
21312;DHT22;18076;52.154;10.570;2023-09-19T10:25:42;19.80;99.90
21312;DHT22;18076;52.154;10.570;2023-09-19T10:28:11;19.50;99.90
21312;DHT22;18076;52.154;10.570;2023-09-19T10:30:45;19.40;99.90
21312;DHT22;18076;52.154;10.570;2023-09-19T10:33:13;19.50;99.90
21312;DHT22;18076;52.154;10.570;2023-09-19T10:35:39;19.40;99.90
21312;DHT22;18076;52.154;10.570;2023-09-19T10:38:09;19.50;99.90
21312;DHT22;18076;52.154;10.570;2023-09-19T10:40:35;19.80;99.90
21312;DHT22;18076;52.154;10.570;2023-09-19T10:43:05;20.00;99.90
21312;DHT22;18076;52.154;10.570;2023-09-19T10:45:31;20.20;99.90
21312;DHT22;18076;52.154;10.570;2023-09-19T10:47:57;20.40;99.90
21312;DHT22;18076;52.154;10.570;2023-09-19T10:50:23;20.40;99.90
21312;DHT22;18076;52.154;10.570;2023-09-19T10:52:49;20.40;99.90
21312;DHT22;18076;52.154;10.570;2023-09-19T10:55:17;20.50;99.90
21312;DHT22;18076;52.154;10.570;2023-09-19T10:57:47;20.50;99.90
21312;DHT22;18076;52.154;10.570;2023-09-19T11:00:13;20.50;99.90
21312;DHT22;18076;52.154;10.570;2023-09-19T11:08:53;20.30;99.90
21312;DHT22;18076;52.154;10.570;2023-09-19T11:11:38;20.40;99.90
21312;DHT22;18076;52.154;10.570;2023-09-19T11:22:14;20.40;99.90
21312;DHT22;18076;52.154;10.570;2023-09-19T11:24:39;20.10;99.90
21312;DHT22;18076;52.154;10.570;2023-09-19T11:27:12;20.00;99.90
21312;DHT22;18076;52.154;10.570;2023-09-19T11:29:42;20.00;99.90
21312;DHT22;18076;52.154;10.570;2023-09-19T11:32:08;20.30;99.90
21312;DHT22;18076;52.154;10.570;2023-09-19T11:34:39;20.30;99.90
21312;DHT22;18076;52.154;10.570;2023-09-19T11:39:39;20.20;99.90
21312;DHT22;18076;52.154;10.570;2023-09-19T11:42:50;20.40;99.90
21312;DHT22;18076;52.154;10.570;2023-09-19T11:44:52;20.50;99.90
21312;DHT22;18076;52.154;10.570;2023-09-19T11:47:21;20.50;99.90
21312;DHT22;18076;52.154;10.570;2023-09-19T11:49:47;20.40;99.90
21312;DHT22;18076;52.154;10.570;2023-09-19T11:52:18;20.50;99.90
21312;DHT22;18076;52.154;10.570;2023-09-19T11:54:47;20.50;99.90
21312;DHT22;18076;52.154;10.570;2023-09-19T11:57:21;20.60;99.90
21312;DHT22;18076;52.154;10.570;2023-09-19T11:59:47;20.60;99.90
21312;DHT22;18076;52.154;10.570;2023-09-19T12:02:15;20.50;99.90
21312;DHT22;18076;52.154;10.570;2023-09-19T12:04:46;20.80;99.90
21312;DHT22;18076;52.154;10.570;2023-09-19T12:07:15;20.80;99.90
21312;DHT22;18076;52.154;10.570;2023-09-19T12:09:44;21.00;99.90
21312;DHT22;18076;52.154;10.570;2023-09-19T12:12:46;21.00;99.90
21312;DHT22;18076;52.154;10.570;2023-09-19T12:15:04;20.90;99.90
21312;DHT22;18076;52.154;10.570;2023-09-19T12:17:38;20.80;99.90
21312;DHT22;18076;52.154;10.570;2023-09-19T12:20:04;20.80;99.90
21312;DHT22;18076;52.154;10.570;2023-09-19T12:22:46;20.70;99.90
21312;DHT22;18076;52.154;10.570;2023-09-19T12:25:12;20.60;99.90
21312;DHT22;18076;52.154;10.570;2023-09-19T12:27:42;20.60;99.90
21312;DHT22;18076;52.154;10.570;2023-09-19T12:30:08;20.50;99.90
21312;DHT22;18076;52.154;10.570;2023-09-19T12:32:35;20.50;99.90
21312;DHT22;18076;52.154;10.570;2023-09-19T12:35:01;20.70;99.90
21312;DHT22;18076;52.154;10.570;2023-09-19T12:37:32;20.80;99.90
21312;DHT22;18076;52.154;10.570;2023-09-19T12:40:08;20.90;99.90
21312;DHT22;18076;52.154;10.570;2023-09-19T12:42:46;21.20;99.90
21312;DHT22;18076;52.154;10.570;2023-09-19T12:45:12;21.40;99.90
21312;DHT22;18076;52.154;10.570;2023-09-19T12:47:39;21.60;99.90
21312;DHT22;18076;52.154;10.570;2023-09-19T12:50:12;21.80;99.90
21312;DHT22;18076;52.154;10.570;2023-09-19T12:52:55;21.60;99.90
21312;DHT22;18076;52.154;10.570;2023-09-19T12:55:22;21.30;99.90
21312;DHT22;18076;52.154;10.570;2023-09-19T12:58:11;21.40;99.90
21312;DHT22;18076;52.154;10.570;2023-09-19T13:05:48;21.20;99.90
21312;DHT22;18076;52.154;10.570;2023-09-19T13:08:20;21.20;99.90
21312;DHT22;18076;52.154;10.570;2023-09-19T13:13:42;21.10;99.90
21312;DHT22;18076;52.154;10.570;2023-09-19T13:16:09;20.90;99.90
21312;DHT22;18076;52.154;10.570;2023-09-19T13:18:41;20.90;99.90
21312;DHT22;18076;52.154;10.570;2023-09-19T13:21:08;20.80;99.90
21312;DHT22;18076;52.154;10.570;2023-09-19T13:23:49;20.80;99.90
21312;DHT22;18076;52.154;10.570;2023-09-19T13:26:14;20.70;99.90
21312;DHT22;18076;52.154;10.570;2023-09-19T13:28:40;20.70;99.90
21312;DHT22;18076;52.154;10.570;2023-09-19T13:31:06;20.60;99.90
21312;DHT22;18076;52.154;10.570;2023-09-19T13:33:31;20.60;99.90
21312;DHT22;18076;52.154;10.570;2023-09-19T13:35:57;20.50;99.90
21312;DHT22;18076;52.154;10.570;2023-09-19T13:38:23;20.50;99.90
21312;DHT22;18076;52.154;10.570;2023-09-19T13:40:49;20.50;99.90
21312;DHT22;18076;52.154;10.570;2023-09-19T13:43:14;20.60;99.90
21312;DHT22;18076;52.154;10.570;2023-09-19T13:45:40;20.60;99.90
21312;DHT22;18076;52.154;10.570;2023-09-19T13:48:07;20.80;99.90
21312;DHT22;18076;52.154;10.570;2023-09-19T13:50:36;20.80;99.90
21312;DHT22;18076;52.154;10.570;2023-09-19T13:53:04;20.70;99.90
21312;DHT22;18076;52.154;10.570;2023-09-19T13:55:29;20.50;99.90
21312;DHT22;18076;52.154;10.570;2023-09-19T13:57:55;20.50;99.90
21312;DHT22;18076;52.154;10.570;2023-09-19T14:00:21;20.40;99.90
21312;DHT22;18076;52.154;10.570;2023-09-19T14:02:48;20.40;99.90
21312;DHT22;18076;52.154;10.570;2023-09-19T14:05:14;20.40;99.90
21312;DHT22;18076;52.154;10.570;2023-09-19T14:07:42;20.40;99.90
21312;DHT22;18076;52.154;10.570;2023-09-19T14:10:08;20.60;99.90
21312;DHT22;18076;52.154;10.570;2023-09-19T14:12:34;20.60;99.90
21312;DHT22;18076;52.154;10.570;2023-09-19T14:15:00;20.80;99.90
21312;DHT22;18076;52.154;10.570;2023-09-19T14:17:25;20.90;99.90
21312;DHT22;18076;52.154;10.570;2023-09-19T14:19:52;21.00;99.90
21312;DHT22;18076;52.154;10.570;2023-09-19T14:22:17;21.20;99.90
21312;DHT22;18076;52.154;10.570;2023-09-19T14:24:43;21.30;99.90
21312;DHT22;18076;52.154;10.570;2023-09-19T14:27:09;21.10;99.90
21312;DHT22;18076;52.154;10.570;2023-09-19T14:29:34;21.20;99.90
21312;DHT22;18076;52.154;10.570;2023-09-19T14:32:00;21.40;99.90
21312;DHT22;18076;52.154;10.570;2023-09-19T14:34:25;21.50;99.90
21312;DHT22;18076;52.154;10.570;2023-09-19T14:36:51;21.50;99.90
21312;DHT22;18076;52.154;10.570;2023-09-19T14:39:17;21.40;99.90
21312;DHT22;18076;52.154;10.570;2023-09-19T14:41:42;21.20;99.90
21312;DHT22;18076;52.154;10.570;2023-09-19T14:44:08;21.10;99.90
21312;DHT22;18076;52.154;10.570;2023-09-19T14:46:35;21.20;99.90
21312;DHT22;18076;52.154;10.570;2023-09-19T14:49:00;21.30;99.90
21312;DHT22;18076;52.154;10.570;2023-09-19T14:51:29;21.40;99.90
21312;DHT22;18076;52.154;10.570;2023-09-19T14:53:54;21.40;99.90
21312;DHT22;18076;52.154;10.570;2023-09-19T14:56:20;21.30;99.90
21312;DHT22;18076;52.154;10.570;2023-09-19T14:58:46;21.30;99.90
21312;DHT22;18076;52.154;10.570;2023-09-19T15:01:12;21.30;99.90
21312;DHT22;18076;52.154;10.570;2023-09-19T15:03:41;21.10;99.90
21312;DHT22;18076;52.154;10.570;2023-09-19T15:06:12;21.10;99.90
21312;DHT22;18076;52.154;10.570;2023-09-19T15:08:39;21.10;99.90
21312;DHT22;18076;52.154;10.570;2023-09-19T15:11:06;21.10;99.90
21312;DHT22;18076;52.154;10.570;2023-09-19T15:13:32;21.10;99.90
21312;DHT22;18076;52.154;10.570;2023-09-19T15:16:07;21.00;99.90
21312;DHT22;18076;52.154;10.570;2023-09-19T15:18:37;21.00;99.90
21312;DHT22;18076;52.154;10.570;2023-09-19T15:21:16;20.90;99.90
21312;DHT22;18076;52.154;10.570;2023-09-19T15:24:22;20.80;99.90
21312;DHT22;18076;52.154;10.570;2023-09-19T15:27:04;20.70;99.90
21312;DHT22;18076;52.154;10.570;2023-09-19T15:29:31;20.70;99.90
21312;DHT22;18076;52.154;10.570;2023-09-19T15:31:56;20.60;99.90
21312;DHT22;18076;52.154;10.570;2023-09-19T15:34:24;20.60;99.90
21312;DHT22;18076;52.154;10.570;2023-09-19T15:36:50;20.60;99.90
21312;DHT22;18076;52.154;10.570;2023-09-19T15:39:16;20.50;99.90
21312;DHT22;18076;52.154;10.570;2023-09-19T15:41:44;20.50;99.90
21312;DHT22;18076;52.154;10.570;2023-09-19T15:44:11;20.50;99.90
21312;DHT22;18076;52.154;10.570;2023-09-19T15:46:36;20.40;99.90
21312;DHT22;18076;52.154;10.570;2023-09-19T15:49:02;20.40;99.90
21312;DHT22;18076;52.154;10.570;2023-09-19T15:51:28;20.40;99.90
21312;DHT22;18076;52.154;10.570;2023-09-19T15:53:54;20.40;99.90
21312;DHT22;18076;52.154;10.570;2023-09-19T15:56:21;20.30;99.90
21312;DHT22;18076;52.154;10.570;2023-09-19T15:58:48;20.30;99.90
21312;DHT22;18076;52.154;10.570;2023-09-19T16:01:14;20.30;99.90
21312;DHT22;18076;52.154;10.570;2023-09-19T16:03:42;20.20;99.90
21312;DHT22;18076;52.154;10.570;2023-09-19T16:06:19;20.20;99.90
21312;DHT22;18076;52.154;10.570;2023-09-19T16:08:48;20.20;99.90